sensor_id;sensor_type;location;lat;lon;timestamp;P1;durP1;ratioP1;P2;durP2;ratioP2
38238;SDS011;24035;48.900;9.188;2024-03-23T00:53:15;8.75;;;1.73;;
38238;SDS011;24035;48.900;9.188;2024-03-23T00:55:41;4.65;;;1.63;;
38238;SDS011;24035;48.900;9.188;2024-03-23T00:58:08;7.05;;;2.15;;
38238;SDS011;24035;48.900;9.188;2024-03-23T01:00:34;5.35;;;1.88;;
38238;SDS011;24035;48.900;9.188;2024-03-23T01:02:59;8.80;;;2.00;;
38238;SDS011;24035;48.900;9.188;2024-03-23T01:05:25;5.47;;;1.88;;
38238;SDS011;24035;48.900;9.188;2024-03-23T01:07:51;10.02;;;2.13;;
38238;SDS011;24035;48.900;9.188;2024-03-23T01:10:17;7.10;;;1.80;;
38238;SDS011;24035;48.900;9.188;2024-03-23T01:12:42;5.63;;;1.70;;
38238;SDS011;24035;48.900;9.188;2024-03-23T01:15:08;7.13;;;1.83;;
38238;SDS011;24035;48.900;9.188;2024-03-23T01:17:34;3.97;;;1.85;;
38238;SDS011;24035;48.900;9.188;2024-03-23T01:20:00;4.45;;;1.67;;
38238;SDS011;24035;48.900;9.188;2024-03-23T01:22:26;5.00;;;1.70;;
38238;SDS011;24035;48.900;9.188;2024-03-23T01:24:51;4.82;;;1.80;;
38238;SDS011;24035;48.900;9.188;2024-03-23T01:27:17;4.75;;;1.85;;
38238;SDS011;24035;48.900;9.188;2024-03-23T01:29:43;4.28;;;1.60;;
38238;SDS011;24035;48.900;9.188;2024-03-23T01:32:09;3.90;;;1.40;;
38238;SDS011;24035;48.900;9.188;2024-03-23T01:34:35;6.50;;;1.50;;
38238;SDS011;24035;48.900;9.188;2024-03-23T01:37:01;6.38;;;1.70;;
38238;SDS011;24035;48.900;9.188;2024-03-23T01:39:26;5.80;;;1.83;;
38238;SDS011;24035;48.900;9.188;2024-03-23T01:41:52;3.67;;;1.60;;
38238;SDS011;24035;48.900;9.188;2024-03-23T01:44:18;3.00;;;1.40;;
38238;SDS011;24035;48.900;9.188;2024-03-23T01:46:44;3.05;;;1.25;;
38238;SDS011;24035;48.900;9.188;2024-03-23T01:49:10;2.60;;;1.00;;
38238;SDS011;24035;48.900;9.188;2024-03-23T01:51:36;2.78;;;1.02;;
38238;SDS011;24035;48.900;9.188;2024-03-23T01:54:03;3.33;;;1.33;;
38238;SDS011;24035;48.900;9.188;2024-03-23T01:56:29;4.43;;;1.20;;
38238;SDS011;24035;48.900;9.188;2024-03-23T01:58:58;3.70;;;1.20;;
38238;SDS011;24035;48.900;9.188;2024-03-23T02:01:23;4.50;;;1.17;;
38238;SDS011;24035;48.900;9.188;2024-03-23T02:03:49;3.05;;;1.00;;
38238;SDS011;24035;48.900;9.188;2024-03-23T02:06:15;3.00;;;1.30;;
38238;SDS011;24035;48.900;9.188;2024-03-23T02:08:41;4.97;;;1.70;;
38238;SDS011;24035;48.900;9.188;2024-03-23T02:11:06;4.13;;;1.40;;
38238;SDS011;24035;48.900;9.188;2024-03-23T02:13:32;3.67;;;1.40;;
38238;SDS011;24035;48.900;9.188;2024-03-23T02:15:58;6.05;;;1.67;;
38238;SDS011;24035;48.900;9.188;2024-03-23T02:18:23;4.88;;;1.98;;
38238;SDS011;24035;48.900;9.188;2024-03-23T02:20:49;7.43;;;1.50;;
38238;SDS011;24035;48.900;9.188;2024-03-23T02:23:15;4.20;;;1.30;;
38238;SDS011;24035;48.900;9.188;2024-03-23T02:25:43;2.90;;;1.30;;
38238;SDS011;24035;48.900;9.188;2024-03-23T02:28:09;2.85;;;0.82;;
38238;SDS011;24035;48.900;9.188;2024-03-23T02:30:35;2.25;;;0.70;;
38238;SDS011;24035;48.900;9.188;2024-03-23T02:33:01;3.60;;;0.90;;
38238;SDS011;24035;48.900;9.188;2024-03-23T02:35:26;2.70;;;0.80;;
38238;SDS011;24035;48.900;9.188;2024-03-23T02:37:52;1.85;;;0.60;;
38238;SDS011;24035;48.900;9.188;2024-03-23T02:40:19;2.80;;;1.00;;
38238;SDS011;24035;48.900;9.188;2024-03-23T02:42:45;1.02;;;0.50;;
38238;SDS011;24035;48.900;9.188;2024-03-23T02:45:11;2.08;;;0.70;;
38238;SDS011;24035;48.900;9.188;2024-03-23T02:47:37;4.07;;;0.80;;
38238;SDS011;24035;48.900;9.188;2024-03-23T02:50:03;2.42;;;0.80;;
38238;SDS011;24035;48.900;9.188;2024-03-23T02:52:29;2.40;;;1.17;;
38238;SDS011;24035;48.900;9.188;2024-03-23T02:54:55;2.85;;;0.95;;
38238;SDS011;24035;48.900;9.188;2024-03-23T02:57:21;2.90;;;0.65;;
38238;SDS011;24035;48.900;9.188;2024-03-23T02:59:47;2.47;;;0.75;;
38238;SDS011;24035;48.900;9.188;2024-03-23T03:02:13;2.47;;;0.95;;
38238;SDS011;24035;48.900;9.188;2024-03-23T03:04:39;2.30;;;0.90;;
38238;SDS011;24035;48.900;9.188;2024-03-23T03:07:05;2.25;;;0.82;;
38238;SDS011;24035;48.900;9.188;2024-03-23T03:09:30;3.05;;;0.98;;
38238;SDS011;24035;48.900;9.188;2024-03-23T03:11:56;1.40;;;0.60;;
38238;SDS011;24035;48.900;9.188;2024-03-23T03:14:22;2.72;;;0.82;;
38238;SDS011;24035;48.900;9.188;2024-03-23T03:16:48;2.55;;;0.93;;
38238;SDS011;24035;48.900;9.188;2024-03-23T03:19:13;2.47;;;0.80;;
38238;SDS011;24035;48.900;9.188;2024-03-23T03:21:41;2.85;;;1.05;;
38238;SDS011;24035;48.900;9.188;2024-03-23T03:24:07;2.40;;;0.90;;
38238;SDS011;24035;48.900;9.188;2024-03-23T03:26:33;2.53;;;0.93;;
38238;SDS011;24035;48.900;9.188;2024-03-23T03:28:58;3.95;;;1.00;;
38238;SDS011;24035;48.900;9.188;2024-03-23T03:31:24;3.78;;;0.90;;
38238;SDS011;24035;48.900;9.188;2024-03-23T03:33:50;2.67;;;1.13;;
38238;SDS011;24035;48.900;9.188;2024-03-23T03:36:16;3.58;;;1.30;;
38238;SDS011;24035;48.900;9.188;2024-03-23T03:38:42;3.00;;;0.90;;
38238;SDS011;24035;48.900;9.188;2024-03-23T03:41:08;7.45;;;1.27;;
38238;SDS011;24035;48.900;9.188;2024-03-23T03:43:33;1.95;;;0.82;;
38238;SDS011;24035;48.900;9.188;2024-03-23T03:46:00;2.90;;;0.88;;
38238;SDS011;24035;48.900;9.188;2024-03-23T03:48:26;5.10;;;1.25;;
38238;SDS011;24035;48.900;9.188;2024-03-23T03:50:52;3.58;;;0.70;;
38238;SDS011;24035;48.900;9.188;2024-03-23T03:53:18;2.85;;;0.93;;
38238;SDS011;24035;48.900;9.188;2024-03-23T03:55:44;1.98;;;0.82;;
38238;SDS011;24035;48.900;9.188;2024-03-23T03:58:10;1.83;;;0.90;;
38238;SDS011;24035;48.900;9.188;2024-03-23T04:00:36;3.30;;;1.15;;
38238;SDS011;24035;48.900;9.188;2024-03-23T04:03:02;1.65;;;0.60;;
38238;SDS011;24035;48.900;9.188;2024-03-23T04:05:28;1.83;;;0.88;;
38238;SDS011;24035;48.900;9.188;2024-03-23T04:07:54;2.13;;;1.00;;
38238;SDS011;24035;48.900;9.188;2024-03-23T04:10:20;2.78;;;1.02;;
38238;SDS011;24035;48.900;9.188;2024-03-23T04:12:46;2.78;;;1.00;;
38238;SDS011;24035;48.900;9.188;2024-03-23T04:15:12;2.70;;;0.90;;
38238;SDS011;24035;48.900;9.188;2024-03-23T04:17:38;1.90;;;0.70;;
38238;SDS011;24035;48.900;9.188;2024-03-23T04:20:06;2.67;;;0.90;;
38238;SDS011;24035;48.900;9.188;2024-03-23T04:22:36;2.13;;;0.70;;
38238;SDS011;24035;48.900;9.188;2024-03-23T04:25:05;2.17;;;0.70;;
38238;SDS011;24035;48.900;9.188;2024-03-23T04:27:38;2.38;;;0.98;;
38238;SDS011;24035;48.900;9.188;2024-03-23T04:30:05;2.78;;;1.02;;
38238;SDS011;24035;48.900;9.188;2024-03-23T04:32:36;5.28;;;1.35;;
38238;SDS011;24035;48.900;9.188;2024-03-23T04:35:02;3.95;;;1.63;;
38238;SDS011;24035;48.900;9.188;2024-03-23T04:37:37;4.53;;;2.03;;
38238;SDS011;24035;48.900;9.188;2024-03-23T04:40:06;6.82;;;2.28;;
38238;SDS011;24035;48.900;9.188;2024-03-23T04:42:32;7.95;;;2.72;;
38238;SDS011;24035;48.900;9.188;2024-03-23T04:44:58;5.18;;;2.45;;
38238;SDS011;24035;48.900;9.188;2024-03-23T04:47:24;6.15;;;2.45;;
38238;SDS011;24035;48.900;9.188;2024-03-23T04:49:50;8.45;;;3.15;;
38238;SDS011;24035;48.900;9.188;2024-03-23T04:52:17;5.00;;;2.65;;
38238;SDS011;24035;48.900;9.188;2024-03-23T04:54:42;5.90;;;2.58;;
38238;SDS011;24035;48.900;9.188;2024-03-23T04:57:09;13.05;;;3.65;;
38238;SDS011;24035;48.900;9.188;2024-03-23T04:59:35;6.53;;;3.03;;
38238;SDS011;24035;48.900;9.188;2024-03-23T05:02:01;9.00;;;3.90;;
38238;SDS011;24035;48.900;9.188;2024-03-23T05:04:27;7.70;;;3.72;;
38238;SDS011;24035;48.900;9.188;2024-03-23T05:06:53;6.57;;;3.42;;
38238;SDS011;24035;48.900;9.188;2024-03-23T05:09:19;8.07;;;3.83;;
38238;SDS011;24035;48.900;9.188;2024-03-23T05:11:45;13.35;;;3.92;;
38238;SDS011;24035;48.900;9.188;2024-03-23T05:14:12;7.85;;;3.90;;
38238;SDS011;24035;48.900;9.188;2024-03-23T05:16:39;8.60;;;3.80;;
38238;SDS011;24035;48.900;9.188;2024-03-23T05:19:05;7.20;;;3.55;;
38238;SDS011;24035;48.900;9.188;2024-03-23T05:21:31;7.75;;;3.97;;
38238;SDS011;24035;48.900;9.188;2024-03-23T05:23:56;9.02;;;3.60;;
38238;SDS011;24035;48.900;9.188;2024-03-23T05:26:22;6.97;;;3.33;;
38238;SDS011;24035;48.900;9.188;2024-03-23T05:28:48;6.70;;;3.85;;
38238;SDS011;24035;48.900;9.188;2024-03-23T05:31:23;7.28;;;3.65;;
38238;SDS011;24035;48.900;9.188;2024-03-23T05:33:50;8.82;;;3.83;;
38238;SDS011;24035;48.900;9.188;2024-03-23T05:36:15;8.02;;;3.45;;
38238;SDS011;24035;48.900;9.188;2024-03-23T05:38:42;8.80;;;3.75;;
38238;SDS011;24035;48.900;9.188;2024-03-23T05:41:07;7.22;;;2.90;;
38238;SDS011;24035;48.900;9.188;2024-03-23T05:43:33;9.23;;;3.85;;
38238;SDS011;24035;48.900;9.188;2024-03-23T05:45:59;7.28;;;3.78;;
38238;SDS011;24035;48.900;9.188;2024-03-23T05:48:26;7.53;;;2.90;;
38238;SDS011;24035;48.900;9.188;2024-03-23T05:50:53;8.82;;;3.42;;
38238;SDS011;24035;48.900;9.188;2024-03-23T05:53:19;5.68;;;2.17;;
38238;SDS011;24035;48.900;9.188;2024-03-23T05:55:48;5.43;;;2.45;;
38238;SDS011;24035;48.900;9.188;2024-03-23T05:58:15;5.82;;;2.63;;
38238;SDS011;24035;48.900;9.188;2024-03-23T06:00:42;4.32;;;2.10;;
38238;SDS011;24035;48.900;9.188;2024-03-23T06:03:09;5.65;;;1.88;;
38238;SDS011;24035;48.900;9.188;2024-03-23T06:05:35;6.28;;;1.98;;
38238;SDS011;24035;48.900;9.188;2024-03-23T06:08:02;3.72;;;1.73;;
38238;SDS011;24035;48.900;9.188;2024-03-23T06:10:28;5.57;;;1.98;;
38238;SDS011;24035;48.900;9.188;2024-03-23T06:12:54;4.68;;;1.63;;
38238;SDS011;24035;48.900;9.188;2024-03-23T06:15:19;5.70;;;2.42;;
38238;SDS011;24035;48.900;9.188;2024-03-23T06:17:47;5.40;;;2.13;;
38238;SDS011;24035;48.900;9.188;2024-03-23T06:20:13;3.85;;;1.38;;
38238;SDS011;24035;48.900;9.188;2024-03-23T06:22:39;4.65;;;1.80;;
38238;SDS011;24035;48.900;9.188;2024-03-23T06:25:05;4.35;;;1.90;;
38238;SDS011;24035;48.900;9.188;2024-03-23T06:27:31;4.15;;;1.35;;
38238;SDS011;24035;48.900;9.188;2024-03-23T06:29:58;3.28;;;1.13;;
38238;SDS011;24035;48.900;9.188;2024-03-23T06:32:27;3.58;;;1.40;;
38238;SDS011;24035;48.900;9.188;2024-03-23T06:34:54;3.95;;;1.30;;
38238;SDS011;24035;48.900;9.188;2024-03-23T06:37:20;3.88;;;1.20;;
38238;SDS011;24035;48.900;9.188;2024-03-23T06:39:46;3.63;;;1.00;;
38238;SDS011;24035;48.900;9.188;2024-03-23T06:42:12;3.20;;;0.80;;
38238;SDS011;24035;48.900;9.188;2024-03-23T06:44:38;1.83;;;0.70;;
38238;SDS011;24035;48.900;9.188;2024-03-23T06:47:04;3.90;;;1.17;;
38238;SDS011;24035;48.900;9.188;2024-03-23T06:49:30;3.28;;;1.00;;
38238;SDS011;24035;48.900;9.188;2024-03-23T06:51:56;1.77;;;0.70;;
38238;SDS011;24035;48.900;9.188;2024-03-23T06:54:21;1.92;;;0.57;;
38238;SDS011;24035;48.900;9.188;2024-03-23T06:56:47;0.68;;;0.28;;
38238;SDS011;24035;48.900;9.188;2024-03-23T06:59:13;0.40;;;0.20;;
38238;SDS011;24035;48.900;9.188;2024-03-23T07:01:39;1.10;;;0.32;;
38238;SDS011;24035;48.900;9.188;2024-03-23T07:04:04;0.75;;;0.30;;
38238;SDS011;24035;48.900;9.188;2024-03-23T07:06:30;1.00;;;0.22;;
38238;SDS011;24035;48.900;9.188;2024-03-23T07:08:56;1.10;;;0.35;;
38238;SDS011;24035;48.900;9.188;2024-03-23T07:11:22;0.77;;;0.20;;
38238;SDS011;24035;48.900;9.188;2024-03-23T07:13:52;2.05;;;0.40;;
38238;SDS011;24035;48.900;9.188;2024-03-23T07:16:21;0.40;;;0.20;;
38238;SDS011;24035;48.900;9.188;2024-03-23T07:18:46;0.40;;;0.10;;
38238;SDS011;24035;48.900;9.188;2024-03-23T07:21:12;0.10;;;0.10;;
38238;SDS011;24035;48.900;9.188;2024-03-23T07:23:39;0.75;;;0.20;;
38238;SDS011;24035;48.900;9.188;2024-03-23T07:26:09;0.70;;;0.30;;
38238;SDS011;24035;48.900;9.188;2024-03-23T07:28:35;0.00;;;0.00;;
38238;SDS011;24035;48.900;9.188;2024-03-23T07:31:02;0.80;;;0.25;;
38238;SDS011;24035;48.900;9.188;2024-03-23T07:33:28;0.93;;;0.35;;
38238;SDS011;24035;48.900;9.188;2024-03-23T07:35:54;0.40;;;0.15;;
38238;SDS011;24035;48.900;9.188;2024-03-23T07:38:19;0.38;;;0.20;;
38238;SDS011;24035;48.900;9.188;2024-03-23T07:40:45;1.08;;;0.30;;
38238;SDS011;24035;48.900;9.188;2024-03-23T07:43:11;1.67;;;0.10;;
38238;SDS011;24035;48.900;9.188;2024-03-23T07:45:37;0.77;;;0.30;;
38238;SDS011;24035;48.900;9.188;2024-03-23T07:48:03;0.93;;;0.28;;
38238;SDS011;24035;48.900;9.188;2024-03-23T07:50:29;0.75;;;0.17;;
38238;SDS011;24035;48.900;9.188;2024-03-23T07:52:55;1.60;;;0.20;;
38238;SDS011;24035;48.900;9.188;2024-03-23T07:55:21;0.40;;;0.20;;
38238;SDS011;24035;48.900;9.188;2024-03-23T07:57:47;1.25;;;0.40;;
38238;SDS011;24035;48.900;9.188;2024-03-23T08:00:13;1.33;;;0.40;;
38238;SDS011;24035;48.900;9.188;2024-03-23T08:02:41;1.58;;;0.43;;
38238;SDS011;24035;48.900;9.188;2024-03-23T08:05:07;1.27;;;0.30;;
38238;SDS011;24035;48.900;9.188;2024-03-23T08:07:33;0.40;;;0.10;;
38238;SDS011;24035;48.900;9.188;2024-03-23T08:09:58;0.70;;;0.17;;
38238;SDS011;24035;48.900;9.188;2024-03-23T08:12:25;0.10;;;0.05;;
38238;SDS011;24035;48.900;9.188;2024-03-23T08:14:51;0.05;;;0.00;;
38238;SDS011;24035;48.900;9.188;2024-03-23T08:17:16;0.32;;;0.10;;
38238;SDS011;24035;48.900;9.188;2024-03-23T08:19:42;0.35;;;0.10;;
38238;SDS011;24035;48.900;9.188;2024-03-23T08:22:08;0.35;;;0.10;;
38238;SDS011;24035;48.900;9.188;2024-03-23T08:24:34;0.82;;;0.20;;
38238;SDS011;24035;48.900;9.188;2024-03-23T08:27:00;0.10;;;0.10;;
38238;SDS011;24035;48.900;9.188;2024-03-23T08:29:26;0.38;;;0.10;;
38238;SDS011;24035;48.900;9.188;2024-03-23T08:31:52;0.20;;;0.10;;
38238;SDS011;24035;48.900;9.188;2024-03-23T08:34:17;0.00;;;0.00;;
38238;SDS011;24035;48.900;9.188;2024-03-23T08:36:43;0.73;;;0.10;;
38238;SDS011;24035;48.900;9.188;2024-03-23T08:39:09;0.30;;;0.20;;
38238;SDS011;24035;48.900;9.188;2024-03-23T08:41:35;1.02;;;0.20;;
38238;SDS011;24035;48.900;9.188;2024-03-23T08:44:00;0.40;;;0.10;;
38238;SDS011;24035;48.900;9.188;2024-03-23T08:46:26;0.47;;;0.17;;
38238;SDS011;24035;48.900;9.188;2024-03-23T08:48:52;0.50;;;0.22;;
38238;SDS011;24035;48.900;9.188;2024-03-23T08:51:18;1.45;;;0.25;;
38238;SDS011;24035;48.900;9.188;2024-03-23T08:53:44;0.47;;;0.20;;
38238;SDS011;24035;48.900;9.188;2024-03-23T08:56:10;1.95;;;0.22;;
38238;SDS011;24035;48.900;9.188;2024-03-23T08:58:37;0.47;;;0.10;;
38238;SDS011;24035;48.900;9.188;2024-03-23T09:01:04;0.68;;;0.20;;
38238;SDS011;24035;48.900;9.188;2024-03-23T09:03:40;0.55;;;0.17;;
38238;SDS011;24035;48.900;9.188;2024-03-23T09:06:07;5.72;;;0.43;;
38238;SDS011;24035;48.900;9.188;2024-03-23T09:08:37;0.68;;;0.20;;
38238;SDS011;24035;48.900;9.188;2024-03-23T09:11:08;0.52;;;0.20;;
38238;SDS011;24035;48.900;9.188;2024-03-23T09:13:35;1.38;;;0.43;;
38238;SDS011;24035;48.900;9.188;2024-03-23T09:16:02;0.95;;;0.22;;
38238;SDS011;24035;48.900;9.188;2024-03-23T09:18:30;3.80;;;0.65;;
38238;SDS011;24035;48.900;9.188;2024-03-23T09:20:58;1.63;;;0.57;;
38238;SDS011;24035;48.900;9.188;2024-03-23T09:23:23;3.30;;;0.60;;
38238;SDS011;24035;48.900;9.188;2024-03-23T09:25:49;3.15;;;0.60;;
38238;SDS011;24035;48.900;9.188;2024-03-23T09:28:15;2.65;;;0.50;;
38238;SDS011;24035;48.900;9.188;2024-03-23T09:30:41;3.85;;;0.75;;
38238;SDS011;24035;48.900;9.188;2024-03-23T09:33:10;4.90;;;1.85;;
38238;SDS011;24035;48.900;9.188;2024-03-23T09:35:39;6.78;;;0.70;;
38238;SDS011;24035;48.900;9.188;2024-03-23T09:38:06;3.30;;;0.68;;
38238;SDS011;24035;48.900;9.188;2024-03-23T09:40:32;2.80;;;0.55;;
38238;SDS011;24035;48.900;9.188;2024-03-23T09:42:59;1.33;;;0.52;;
38238;SDS011;24035;48.900;9.188;2024-03-23T09:45:28;3.83;;;1.00;;
38238;SDS011;24035;48.900;9.188;2024-03-23T09:47:55;1.63;;;0.32;;
38238;SDS011;24035;48.900;9.188;2024-03-23T09:50:21;2.33;;;0.70;;
38238;SDS011;24035;48.900;9.188;2024-03-23T09:52:47;4.25;;;1.05;;
38238;SDS011;24035;48.900;9.188;2024-03-23T09:55:13;2.78;;;0.80;;
38238;SDS011;24035;48.900;9.188;2024-03-23T09:57:39;4.13;;;0.90;;
38238;SDS011;24035;48.900;9.188;2024-03-23T10:00:06;2.58;;;0.95;;
38238;SDS011;24035;48.900;9.188;2024-03-23T10:02:33;4.38;;;1.25;;
38238;SDS011;24035;48.900;9.188;2024-03-23T10:05:00;7.47;;;0.90;;
38238;SDS011;24035;48.900;9.188;2024-03-23T10:07:26;2.65;;;0.60;;
38238;SDS011;24035;48.900;9.188;2024-03-23T10:09:54;3.10;;;1.13;;
38238;SDS011;24035;48.900;9.188;2024-03-23T10:12:20;4.75;;;0.70;;
38238;SDS011;24035;48.900;9.188;2024-03-23T10:14:46;3.17;;;0.95;;
38238;SDS011;24035;48.900;9.188;2024-03-23T10:17:13;1.30;;;0.40;;
38238;SDS011;24035;48.900;9.188;2024-03-23T10:19:43;2.25;;;0.57;;
38238;SDS011;24035;48.900;9.188;2024-03-23T10:22:17;5.70;;;1.67;;
38238;SDS011;24035;48.900;9.188;2024-03-23T10:24:44;2.58;;;0.80;;
38238;SDS011;24035;48.900;9.188;2024-03-23T10:27:15;3.78;;;1.00;;
38238;SDS011;24035;48.900;9.188;2024-03-23T10:29:43;4.28;;;0.93;;
38238;SDS011;24035;48.900;9.188;2024-03-23T10:32:16;2.42;;;0.75;;
38238;SDS011;24035;48.900;9.188;2024-03-23T10:34:43;4.32;;;1.15;;
38238;SDS011;24035;48.900;9.188;2024-03-23T10:37:09;4.22;;;1.05;;
38238;SDS011;24035;48.900;9.188;2024-03-23T10:39:39;2.38;;;0.80;;
38238;SDS011;24035;48.900;9.188;2024-03-23T10:42:09;2.22;;;0.70;;
38238;SDS011;24035;48.900;9.188;2024-03-23T10:44:35;8.23;;;0.82;;
38238;SDS011;24035;48.900;9.188;2024-03-23T10:47:02;2.47;;;0.77;;
38238;SDS011;24035;48.900;9.188;2024-03-23T10:49:28;2.78;;;0.75;;
38238;SDS011;24035;48.900;9.188;2024-03-23T10:51:56;3.35;;;0.80;;
38238;SDS011;24035;48.900;9.188;2024-03-23T10:54:23;2.55;;;0.82;;
38238;SDS011;24035;48.900;9.188;2024-03-23T10:56:57;3.20;;;0.85;;
38238;SDS011;24035;48.900;9.188;2024-03-23T10:59:27;2.78;;;0.88;;
38238;SDS011;24035;48.900;9.188;2024-03-23T11:01:58;6.82;;;1.10;;
38238;SDS011;24035;48.900;9.188;2024-03-23T11:04:31;2.22;;;0.80;;
38238;SDS011;24035;48.900;9.188;2024-03-23T11:07:00;3.65;;;1.20;;
38238;SDS011;24035;48.900;9.188;2024-03-23T11:09:40;3.67;;;1.25;;
38238;SDS011;24035;48.900;9.188;2024-03-23T11:12:17;4.15;;;1.00;;
38238;SDS011;24035;48.900;9.188;2024-03-23T11:14:46;5.20;;;0.98;;
38238;SDS011;24035;48.900;9.188;2024-03-23T11:17:17;3.95;;;0.90;;
38238;SDS011;24035;48.900;9.188;2024-03-23T11:19:44;3.10;;;1.02;;
38238;SDS011;24035;48.900;9.188;2024-03-23T11:22:17;3.17;;;1.48;;
38238;SDS011;24035;48.900;9.188;2024-03-23T11:27:50;2.22;;;0.77;;
38238;SDS011;24035;48.900;9.188;2024-03-23T11:32:51;3.03;;;1.00;;
38238;SDS011;24035;48.900;9.188;2024-03-23T11:35:28;2.17;;;0.70;;
38238;SDS011;24035;48.900;9.188;2024-03-23T11:40:27;5.53;;;0.93;;
38238;SDS011;24035;48.900;9.188;2024-03-23T11:42:56;3.60;;;1.20;;
38238;SDS011;24035;48.900;9.188;2024-03-23T11:45:25;3.85;;;1.00;;
38238;SDS011;24035;48.900;9.188;2024-03-23T11:50:34;5.65;;;1.30;;
38238;SDS011;24035;48.900;9.188;2024-03-23T11:58:05;1.98;;;0.70;;
38238;SDS011;24035;48.900;9.188;2024-03-23T12:00:31;2.10;;;0.90;;
38238;SDS011;24035;48.900;9.188;2024-03-23T12:03:01;3.80;;;1.20;;
38238;SDS011;24035;48.900;9.188;2024-03-23T12:05:28;4.18;;;0.88;;
38238;SDS011;24035;48.900;9.188;2024-03-23T12:07:55;2.55;;;0.90;;
38238;SDS011;24035;48.900;9.188;2024-03-23T12:10:40;1.83;;;0.68;;
38238;SDS011;24035;48.900;9.188;2024-03-23T12:13:05;1.98;;;0.52;;
38238;SDS011;24035;48.900;9.188;2024-03-23T12:15:31;3.80;;;0.70;;
38238;SDS011;24035;48.900;9.188;2024-03-23T12:18:07;1.65;;;0.38;;
38238;SDS011;24035;48.900;9.188;2024-03-23T12:20:33;2.75;;;0.85;;
38238;SDS011;24035;48.900;9.188;2024-03-23T12:23:05;5.47;;;0.55;;
38238;SDS011;24035;48.900;9.188;2024-03-23T12:25:37;3.58;;;0.70;;
38238;SDS011;24035;48.900;9.188;2024-03-23T12:28:05;1.42;;;0.47;;
38238;SDS011;24035;48.900;9.188;2024-03-23T12:30:40;2.17;;;0.63;;
38238;SDS011;24035;48.900;9.188;2024-03-23T12:33:06;2.42;;;0.30;;
38238;SDS011;24035;48.900;9.188;2024-03-23T12:35:32;5.03;;;0.52;;
38238;SDS011;24035;48.900;9.188;2024-03-23T12:37:58;2.17;;;0.50;;
38238;SDS011;24035;48.900;9.188;2024-03-23T12:40:24;1.48;;;0.47;;
38238;SDS011;24035;48.900;9.188;2024-03-23T12:42:50;2.13;;;0.55;;
38238;SDS011;24035;48.900;9.188;2024-03-23T12:45:15;3.85;;;0.50;;
38238;SDS011;24035;48.900;9.188;2024-03-23T12:47:41;2.00;;;0.40;;
38238;SDS011;24035;48.900;9.188;2024-03-23T12:50:07;2.40;;;0.57;;
38238;SDS011;24035;48.900;9.188;2024-03-23T12:52:35;1.90;;;0.47;;
38238;SDS011;24035;48.900;9.188;2024-03-23T12:55:01;5.03;;;0.70;;
38238;SDS011;24035;48.900;9.188;2024-03-23T12:57:28;6.63;;;0.70;;
38238;SDS011;24035;48.900;9.188;2024-03-23T12:59:54;2.70;;;0.43;;
38238;SDS011;24035;48.900;9.188;2024-03-23T13:02:20;3.58;;;0.65;;
38238;SDS011;24035;48.900;9.188;2024-03-23T13:04:46;4.03;;;0.40;;
38238;SDS011;24035;48.900;9.188;2024-03-23T13:07:17;4.32;;;1.02;;
38238;SDS011;24035;48.900;9.188;2024-03-23T13:09:43;3.78;;;0.70;;
38238;SDS011;24035;48.900;9.188;2024-03-23T13:12:09;1.75;;;0.40;;
38238;SDS011;24035;48.900;9.188;2024-03-23T13:14:37;1.67;;;0.55;;
38238;SDS011;24035;48.900;9.188;2024-03-23T13:17:07;3.08;;;0.43;;
38238;SDS011;24035;48.900;9.188;2024-03-23T13:19:33;2.45;;;0.70;;
38238;SDS011;24035;48.900;9.188;2024-03-23T13:21:59;1.98;;;0.50;;
38238;SDS011;24035;48.900;9.188;2024-03-23T13:24:26;4.38;;;0.40;;
38238;SDS011;24035;48.900;9.188;2024-03-23T13:26:53;5.70;;;0.70;;
38238;SDS011;24035;48.900;9.188;2024-03-23T13:29:20;2.03;;;0.60;;
38238;SDS011;24035;48.900;9.188;2024-03-23T13:31:49;3.67;;;0.50;;
38238;SDS011;24035;48.900;9.188;2024-03-23T13:34:16;4.00;;;0.60;;
38238;SDS011;24035;48.900;9.188;2024-03-23T13:36:42;1.75;;;0.38;;
38238;SDS011;24035;48.900;9.188;2024-03-23T13:39:08;3.22;;;0.40;;
38238;SDS011;24035;48.900;9.188;2024-03-23T13:41:38;3.17;;;0.75;;
38238;SDS011;24035;48.900;9.188;2024-03-23T13:44:05;1.38;;;0.30;;
38238;SDS011;24035;48.900;9.188;2024-03-23T13:46:32;3.47;;;0.70;;
38238;SDS011;24035;48.900;9.188;2024-03-23T13:48:58;3.25;;;0.43;;
38238;SDS011;24035;48.900;9.188;2024-03-23T13:51:24;2.83;;;0.30;;
38238;SDS011;24035;48.900;9.188;2024-03-23T13:53:53;2.08;;;0.45;;
38238;SDS011;24035;48.900;9.188;2024-03-23T13:56:20;1.58;;;0.30;;
38238;SDS011;24035;48.900;9.188;2024-03-23T13:58:46;0.80;;;0.22;;
38238;SDS011;24035;48.900;9.188;2024-03-23T14:01:13;1.55;;;0.40;;
38238;SDS011;24035;48.900;9.188;2024-03-23T14:03:39;3.00;;;0.30;;
38238;SDS011;24035;48.900;9.188;2024-03-23T14:06:06;3.45;;;0.40;;
38238;SDS011;24035;48.900;9.188;2024-03-23T14:08:33;0.68;;;0.28;;
38238;SDS011;24035;48.900;9.188;2024-03-23T14:11:01;1.27;;;0.20;;
38238;SDS011;24035;48.900;9.188;2024-03-23T14:13:28;2.65;;;0.45;;
38238;SDS011;24035;48.900;9.188;2024-03-23T14:15:55;2.80;;;0.25;;
38238;SDS011;24035;48.900;9.188;2024-03-23T14:18:20;0.95;;;0.30;;
38238;SDS011;24035;48.900;9.188;2024-03-23T14:20:49;2.15;;;0.70;;
38238;SDS011;24035;48.900;9.188;2024-03-23T14:23:15;3.35;;;0.55;;
38238;SDS011;24035;48.900;9.188;2024-03-23T14:25:41;1.48;;;0.32;;
38238;SDS011;24035;48.900;9.188;2024-03-23T14:28:07;2.50;;;0.57;;
38238;SDS011;24035;48.900;9.188;2024-03-23T14:30:39;1.77;;;0.45;;
38238;SDS011;24035;48.900;9.188;2024-03-23T14:33:05;3.42;;;0.30;;
38238;SDS011;24035;48.900;9.188;2024-03-23T14:35:31;2.60;;;0.30;;
38238;SDS011;24035;48.900;9.188;2024-03-23T14:37:58;2.92;;;0.60;;
38238;SDS011;24035;48.900;9.188;2024-03-23T14:40:24;4.40;;;0.60;;
38238;SDS011;24035;48.900;9.188;2024-03-23T14:42:52;1.98;;;0.82;;
38238;SDS011;24035;48.900;9.188;2024-03-23T14:45:20;4.65;;;0.50;;
38238;SDS011;24035;48.900;9.188;2024-03-23T14:47:46;1.58;;;0.30;;
38238;SDS011;24035;48.900;9.188;2024-03-23T14:50:12;2.63;;;0.47;;
38238;SDS011;24035;48.900;9.188;2024-03-23T14:52:41;2.15;;;0.30;;
38238;SDS011;24035;48.900;9.188;2024-03-23T14:55:08;2.50;;;0.60;;
38238;SDS011;24035;48.900;9.188;2024-03-23T14:57:34;4.18;;;0.63;;
38238;SDS011;24035;48.900;9.188;2024-03-23T15:00:00;2.33;;;0.40;;
38238;SDS011;24035;48.900;9.188;2024-03-23T15:02:26;2.50;;;0.30;;
38238;SDS011;24035;48.900;9.188;2024-03-23T15:04:53;6.43;;;0.63;;
38238;SDS011;24035;48.900;9.188;2024-03-23T15:07:19;4.85;;;0.47;;
38238;SDS011;24035;48.900;9.188;2024-03-23T15:09:45;0.90;;;0.30;;
38238;SDS011;24035;48.900;9.188;2024-03-23T15:12:10;0.63;;;0.30;;
38238;SDS011;24035;48.900;9.188;2024-03-23T15:14:37;1.13;;;0.30;;
38238;SDS011;24035;48.900;9.188;2024-03-23T15:17:02;0.28;;;0.03;;
38238;SDS011;24035;48.900;9.188;2024-03-23T15:19:32;0.68;;;0.10;;
38238;SDS011;24035;48.900;9.188;2024-03-23T15:21:58;0.65;;;0.10;;
38238;SDS011;24035;48.900;9.188;2024-03-23T15:24:23;0.57;;;0.20;;
38238;SDS011;24035;48.900;9.188;2024-03-23T15:26:50;0.32;;;0.20;;
38238;SDS011;24035;48.900;9.188;2024-03-23T15:29:17;0.65;;;0.22;;
38238;SDS011;24035;48.900;9.188;2024-03-23T15:31:43;0.47;;;0.20;;
38238;SDS011;24035;48.900;9.188;2024-03-23T15:34:09;0.77;;;0.20;;
38238;SDS011;24035;48.900;9.188;2024-03-23T15:36:37;1.00;;;0.30;;
38238;SDS011;24035;48.900;9.188;2024-03-23T15:39:06;0.68;;;0.20;;
38238;SDS011;24035;48.900;9.188;2024-03-23T15:41:32;0.43;;;0.10;;
38238;SDS011;24035;48.900;9.188;2024-03-23T15:43:59;0.98;;;0.20;;
38238;SDS011;24035;48.900;9.188;2024-03-23T15:46:25;0.82;;;0.20;;
38238;SDS011;24035;48.900;9.188;2024-03-23T15:48:50;0.80;;;0.17;;
38238;SDS011;24035;48.900;9.188;2024-03-23T15:51:16;0.68;;;0.20;;
38238;SDS011;24035;48.900;9.188;2024-03-23T15:53:43;1.15;;;0.40;;